Time;durP1;ratioP1;P1;durP2;ratioP2;P2;SDS_P1;SDS_P2;PMS_P1;PMS_P2;Temp;Humidity;BMP_temperature;BMP_pressure;BME280_temperature;BME280_humidity;BME280_pressure;Samples;Min_cycle;Max_cycle;Signal;HPM_P1;HPM_P2
2023/01/06 00:02:26;;;;;;;37.35;18.83;;;10.80;99.90;;;;;;5046835;28;20381;-75
2023/01/06 00:04:53;;;;;;;38.55;21.90;;;10.80;99.90;;;;;;5042108;28;20244;-76
2023/01/06 00:07:20;;;;;;;37.70;19.25;;;10.90;99.90;;;;;;5051673;28;20344;-76
2023/01/06 00:09:47;;;;;;;40.45;22.65;;;10.90;99.90;;;;;;5046315;28;20707;-74
2023/01/06 00:12:14;;;;;;;32.85;20.38;;;10.90;99.90;;;;;;5045197;28;20240;-75
2023/01/06 00:14:41;;;;;;;40.28;21.95;;;10.80;99.90;;;;;;5048529;28;20222;-75
2023/01/06 00:17:09;;;;;;;38.95;20.23;;;10.90;99.90;;;;;;5049682;28;20228;-75
2023/01/06 00:19:37;;;;;;;38.92;21.90;;;10.90;99.90;;;;;;5048441;28;20209;-76
2023/01/06 00:22:04;;;;;;;34.72;21.85;;;10.90;99.90;;;;;;5050850;28;20612;-76
2023/01/06 00:24:32;;;;;;;44.15;22.52;;;10.80;99.90;;;;;;5046351;28;20204;-76
2023/01/06 00:26:59;;;;;;;50.65;24.38;;;10.90;99.90;;;;;;5042328;28;20228;-75
2023/01/06 00:29:26;;;;;;;38.40;21.70;;;10.80;99.90;;;;;;5051084;28;20201;-75
2023/01/06 00:32:05;;;;;;;39.40;21.38;;;10.90;99.90;;;;;;5058753;28;20214;-74
2023/01/06 00:34:32;;;;;;;42.80;21.90;;;10.90;99.90;;;;;;5045004;28;20245;-75
2023/01/06 00:37:02;;;;;;;48.42;22.77;;;10.90;99.90;;;;;;5044566;28;20245;-75
2023/01/06 00:39:29;;;;;;;41.28;23.40;;;10.80;99.90;;;;;;5039717;28;20226;-74
2023/01/06 00:42:07;;;;;;;47.05;22.85;;;10.90;99.90;;;;;;5046116;28;20212;-74
2023/01/06 00:44:36;;;;;;;48.47;25.45;;;10.90;99.90;;;;;;5038399;28;20640;-76
2023/01/06 00:47:05;;;;;;;49.70;22.75;;;10.80;99.90;;;;;;5039929;28;20243;-75
2023/01/06 00:49:32;;;;;;;42.08;22.88;;;10.70;99.90;;;;;;5048147;28;20624;-75
2023/01/06 00:52:00;;;;;;;39.97;22.00;;;10.70;99.90;;;;;;5049016;28;20635;-75
2023/01/06 00:54:27;;;;;;;49.20;25.00;;;10.70;99.90;;;;;;5049036;28;20291;-74
2023/01/06 00:56:56;;;;;;;48.53;25.63;;;10.80;99.90;;;;;;5052801;28;20226;-76
2023/01/06 00:59:24;;;;;;;39.00;21.40;;;10.80;99.90;;;;;;5052603;28;20246;-75
2023/01/06 01:01:53;;;;;;;44.67;24.42;;;10.90;99.90;;;;;;5051744;28;20211;-76
2023/01/06 01:04:21;;;;;;;49.67;23.38;;;10.90;99.90;;;;;;5049294;28;20306;-75
2023/01/06 01:06:49;;;;;;;40.72;24.52;;;10.90;99.90;;;;;;5051248;28;20316;-75
2023/01/06 01:09:20;;;;;;;44.53;21.95;;;11.00;99.90;;;;;;5048784;28;20302;-75
2023/01/06 01:14:33;;;;;;;52.88;27.48;;;11.10;99.90;;;;;;5051321;28;20684;-74
2023/01/06 01:17:00;;;;;;;51.10;24.50;;;11.10;99.90;;;;;;5046300;28;20230;-74
2023/01/06 01:19:28;;;;;;;55.72;27.00;;;11.10;99.90;;;;;;5048487;28;20309;-74
2023/01/06 01:21:55;;;;;;;50.72;27.55;;;11.10;99.90;;;;;;5031643;28;20211;-74
2023/01/06 01:24:23;;;;;;;45.58;23.95;;;11.10;99.90;;;;;;5046686;28;20293;-75
2023/01/06 01:26:50;;;;;;;47.92;27.02;;;11.10;99.90;;;;;;5050923;28;20225;-75
2023/01/06 01:29:19;;;;;;;48.45;27.20;;;11.10;99.90;;;;;;5046048;28;20306;-76
2023/01/06 01:31:47;;;;;;;41.20;24.60;;;11.10;99.90;;;;;;5050149;28;20576;-75
2023/01/06 01:34:15;;;;;;;46.92;27.35;;;11.20;99.90;;;;;;5045918;28;20345;-75
2023/01/06 01:36:44;;;;;;;48.55;27.13;;;11.20;99.90;;;;;;5051606;28;20320;-76
2023/01/06 01:39:12;;;;;;;55.70;29.23;;;11.20;99.90;;;;;;5047211;28;20717;-74
2023/01/06 01:41:40;;;;;;;51.92;28.90;;;11.20;99.90;;;;;;5042958;28;20211;-75
2023/01/06 01:44:45;;;;;;;48.85;27.90;;;11.20;99.90;;;;;;5049075;28;20237;-74
2023/01/06 01:47:14;;;;;;;52.72;26.80;;;11.20;99.90;;;;;;5052361;28;20300;-75
2023/01/06 01:49:44;;;;;;;45.13;26.98;;;11.20;99.90;;;;;;5041736;28;20201;-74
2023/01/06 01:52:12;;;;;;;46.55;28.23;;;11.20;99.90;;;;;;5051768;28;20285;-74
2023/01/06 01:54:41;;;;;;;47.95;28.17;;;11.20;99.90;;;;;;5046466;28;20301;-75
2023/01/06 01:57:13;;;;;;;55.63;29.65;;;11.20;99.90;;;;;;5055399;28;20234;-74
2023/01/06 01:59:42;;;;;;;49.00;27.60;;;11.20;99.90;;;;;;5042893;28;20575;-74
2023/01/06 02:02:09;;;;;;;62.08;29.25;;;11.20;99.90;;;;;;5052415;28;20214;-75
2023/01/06 02:04:39;;;;;;;53.80;29.15;;;11.20;99.90;;;;;;5055281;28;20200;-75
2023/01/06 02:07:07;;;;;;;63.17;30.17;;;11.20;99.90;;;;;;5055420;28;20217;-74
2023/01/06 02:09:40;;;;;;;66.38;30.27;;;11.30;99.90;;;;;;5054739;28;20242;-75
2023/01/06 02:12:07;;;;;;;47.65;28.35;;;11.30;99.90;;;;;;5052234;28;20293;-74
2023/01/06 02:14:35;;;;;;;49.63;27.90;;;11.30;99.90;;;;;;5052809;28;20262;-75
2023/01/06 02:17:39;;;;;;;58.67;30.33;;;11.40;99.90;;;;;;5070810;28;20211;-74
2023/01/06 02:20:35;;;;;;;51.28;28.38;;;11.30;99.90;;;;;;5054988;28;20214;-73
2023/01/06 02:23:25;;;;;;;53.70;29.73;;;11.20;99.90;;;;;;5037835;28;20246;-75
2023/01/06 02:26:23;;;;;;;49.58;26.83;;;11.20;99.90;;;;;;5051568;28;20242;-73
2023/01/06 02:29:18;;;;;;;51.13;28.50;;;11.20;99.90;;;;;;5042032;28;20208;-74
2023/01/06 02:32:36;;;;;;;42.83;25.10;;;11.20;99.90;;;;;;5033643;28;20206;-74
2023/01/06 02:35:17;;;;;;;46.42;24.38;;;11.20;99.90;;;;;;5021514;28;20258;-75
2023/01/06 02:37:53;;;;;;;44.22;25.58;;;11.20;99.90;;;;;;5037825;28;20244;-75
2023/01/06 02:40:30;;;;;;;44.38;26.48;;;11.20;99.90;;;;;;5030022;28;20218;-75
2023/01/06 02:43:10;;;;;;;39.15;23.90;;;11.20;99.90;;;;;;5034963;28;20239;-75
2023/01/06 02:45:47;;;;;;;47.45;24.13;;;11.30;99.90;;;;;;5042592;28;20239;-75
2023/01/06 02:48:23;;;;;;;38.63;21.98;;;11.20;99.90;;;;;;5035392;28;20316;-74
2023/01/06 02:50:58;;;;;;;32.65;20.38;;;11.10;99.90;;;;;;5053100;28;20237;-74
2023/01/06 02:53:33;;;;;;;38.28;22.58;;;11.20;99.90;;;;;;5035388;28;20234;-74
2023/01/06 02:56:01;;;;;;;33.80;22.33;;;11.10;99.90;;;;;;5049364;28;20247;-74
2023/01/06 02:58:35;;;;;;;36.88;19.42;;;11.20;99.90;;;;;;5035375;28;20737;-74
2023/01/06 03:01:07;;;;;;;40.28;19.92;;;11.20;99.90;;;;;;5049329;28;20223;-76
2023/01/06 03:03:39;;;;;;;27.85;18.73;;;11.10;99.90;;;;;;5046909;28;20674;-74
2023/01/06 03:06:09;;;;;;;33.15;18.45;;;11.20;99.90;;;;;;5050417;28;20227;-74
2023/01/06 03:08:37;;;;;;;34.22;19.05;;;11.20;99.90;;;;;;5050319;28;20238;-74
2023/01/06 03:11:04;;;;;;;25.20;18.10;;;11.20;99.90;;;;;;5049524;28;20297;-75
2023/01/06 03:13:40;;;;;;;27.80;18.55;;;11.20;99.90;;;;;;5057861;28;20289;-75
2023/01/06 03:16:07;;;;;;;29.50;18.60;;;11.30;99.90;;;;;;5050508;28;20584;-75
2023/01/06 03:18:37;;;;;;;28.27;20.17;;;11.30;99.90;;;;;;5050773;28;20201;-75
2023/01/06 03:21:07;;;;;;;24.50;18.65;;;11.30;99.90;;;;;;5050564;28;20309;-75
2023/01/06 03:23:37;;;;;;;28.85;19.98;;;11.40;99.90;;;;;;5041994;28;20219;-75
2023/01/06 03:26:05;;;;;;;27.58;18.60;;;11.30;99.90;;;;;;5047260;28;20771;-75
2023/01/06 03:28:31;;;;;;;31.63;18.95;;;11.30;99.90;;;;;;5046044;28;20234;-75
2023/01/06 03:31:11;;;;;;;30.50;18.85;;;11.40;99.90;;;;;;5047863;28;20286;-76
2023/01/06 03:33:49;;;;;;;33.72;18.27;;;11.40;99.90;;;;;;5048875;28;20248;-75
2023/01/06 03:36:24;;;;;;;39.35;19.02;;;11.30;99.90;;;;;;5029230;28;20290;-75
2023/01/06 03:39:03;;;;;;;26.20;18.38;;;11.30;99.90;;;;;;5046979;28;20237;-75
2023/01/06 03:44:32;;;;;;;25.42;18.13;;;11.30;99.90;;;;;;5049617;28;20202;-76
2023/01/06 03:47:06;;;;;;;31.95;18.20;;;11.30;99.90;;;;;;5047366;28;20228;-73
2023/01/06 03:49:43;;;;;;;27.10;15.82;;;11.20;99.90;;;;;;5042418;28;20230;-75
2023/01/06 03:52:19;;;;;;;33.28;17.42;;;11.20;99.90;;;;;;5027510;28;20637;-75
2023/01/06 03:54:55;;;;;;;32.35;18.50;;;11.20;99.90;;;;;;5020874;28;20313;-75
2023/01/06 03:57:25;;;;;;;27.25;17.10;;;11.20;99.90;;;;;;5038990;28;20213;-75
2023/01/06 03:59:56;;;;;;;28.90;17.50;;;11.20;99.90;;;;;;5055217;28;20215;-75
2023/01/06 04:02:24;;;;;;;21.67;14.30;;;11.10;99.90;;;;;;5109450;22;20272;-74
2023/01/06 04:05:04;;;;;;;20.23;14.73;;;11.00;99.90;;;;;;5017851;28;20281;-75
2023/01/06 04:07:31;;;;;;;25.63;14.10;;;11.10;99.90;;;;;;5015768;28;20215;-75
2023/01/06 04:09:58;;;;;;;25.23;13.77;;;11.00;99.90;;;;;;5014388;28;20653;-75
2023/01/06 04:12:39;;;;;;;26.58;14.88;;;11.00;99.90;;;;;;5014663;28;20215;-75
2023/01/06 04:15:09;;;;;;;21.33;14.13;;;11.10;99.90;;;;;;5011901;28;20255;-75
2023/01/06 04:17:36;;;;;;;16.67;13.38;;;11.10;99.90;;;;;;5013141;28;20245;-74
2023/01/06 04:20:05;;;;;;;23.42;12.77;;;11.10;99.90;;;;;;5012464;28;20199;-76
2023/01/06 04:22:32;;;;;;;18.42;14.82;;;11.00;99.90;;;;;;5014934;28;20227;-75
2023/01/06 04:24:59;;;;;;;19.38;13.80;;;11.00;99.90;;;;;;5013173;28;20228;-74
2023/01/06 04:27:26;;;;;;;21.67;12.48;;;11.00;99.90;;;;;;5014706;28;20661;-76
2023/01/06 04:29:53;;;;;;;15.85;12.45;;;11.00;99.90;;;;;;5011804;28;20211;-74
2023/01/06 04:32:20;;;;;;;17.02;13.02;;;11.00;99.90;;;;;;5008345;28;20536;-74
2023/01/06 04:34:47;;;;;;;15.07;13.07;;;11.00;99.90;;;;;;5014946;28;20217;-75
2023/01/06 04:37:16;;;;;;;17.00;13.77;;;11.00;99.90;;;;;;5014806;28;20278;-75
2023/01/06 04:39:43;;;;;;;22.10;13.40;;;11.00;99.90;;;;;;5014183;28;20283;-75
2023/01/06 04:42:10;;;;;;;17.80;14.02;;;11.00;99.90;;;;;;5014740;28;20225;-74
2023/01/06 04:44:37;;;;;;;26.90;14.90;;;11.00;99.90;;;;;;5014224;28;20214;-76
2023/01/06 04:47:04;;;;;;;19.73;15.23;;;11.00;99.90;;;;;;5010377;28;20288;-75
2023/01/06 04:49:30;;;;;;;20.33;14.18;;;11.00;99.90;;;;;;5013855;28;20202;-76
2023/01/06 04:51:57;;;;;;;22.80;15.85;;;11.10;99.90;;;;;;5016170;28;20214;-75
2023/01/06 04:54:25;;;;;;;22.90;14.38;;;11.10;99.90;;;;;;5013523;28;20697;-75
2023/01/06 04:56:52;;;;;;;21.40;16.55;;;11.00;99.90;;;;;;5019698;28;20262;-75
2023/01/06 04:59:19;;;;;;;19.85;15.93;;;11.10;99.90;;;;;;5022871;28;20238;-75
2023/01/06 05:01:46;;;;;;;23.98;18.20;;;11.10;99.90;;;;;;5024537;28;20233;-75
2023/01/06 05:04:14;;;;;;;24.15;18.50;;;11.10;99.90;;;;;;5032762;28;20212;-75
2023/01/06 05:06:41;;;;;;;22.25;15.68;;;11.10;99.90;;;;;;5024465;28;20237;-75
2023/01/06 05:09:08;;;;;;;19.80;16.67;;;11.00;99.90;;;;;;5032911;28;20582;-75
2023/01/06 05:11:36;;;;;;;27.75;17.50;;;11.00;99.90;;;;;;5033364;28;20250;-75
2023/01/06 05:14:03;;;;;;;20.63;17.80;;;11.00;99.90;;;;;;5024943;28;20241;-75
2023/01/06 05:16:31;;;;;;;23.13;17.00;;;11.10;99.90;;;;;;5030918;28;20255;-75
2023/01/06 05:18:59;;;;;;;23.33;18.27;;;11.00;99.90;;;;;;5028269;28;20567;-75
2023/01/06 05:21:29;;;;;;;24.55;16.83;;;11.00;99.90;;;;;;5030952;28;20226;-75
2023/01/06 05:23:56;;;;;;;21.83;16.63;;;11.00;99.90;;;;;;5029027;28;20578;-77
2023/01/06 05:26:25;;;;;;;22.00;17.40;;;11.00;99.90;;;;;;5019636;28;20231;-75
2023/01/06 05:28:53;;;;;;;18.83;15.85;;;11.00;99.90;;;;;;5034700;28;20211;-76
2023/01/06 05:31:21;;;;;;;18.88;14.82;;;11.00;99.90;;;;;;5026342;28;20287;-75
2023/01/06 05:33:47;;;;;;;20.98;14.73;;;11.00;99.90;;;;;;5031777;28;20245;-75
2023/01/06 05:36:16;;;;;;;18.48;16.20;;;11.00;99.90;;;;;;5028983;28;20650;-75
2023/01/06 05:38:44;;;;;;;19.88;17.05;;;11.00;99.90;;;;;;5026853;28;20290;-75
2023/01/06 05:41:11;;;;;;;18.73;14.88;;;11.00;99.90;;;;;;5026800;28;20712;-76
2023/01/06 05:43:38;;;;;;;23.65;14.63;;;11.10;99.90;;;;;;5022945;28;20286;-74
2023/01/06 05:46:09;;;;;;;20.77;14.52;;;11.10;99.90;;;;;;5028163;28;20748;-75
2023/01/06 05:48:36;;;;;;;17.67;13.75;;;11.20;99.90;;;;;;5029474;28;20269;-75
2023/01/06 05:51:04;;;;;;;20.83;13.20;;;11.20;99.90;;;;;;5029188;28;20200;-75
2023/01/06 05:53:32;;;;;;;15.05;12.77;;;11.30;99.90;;;;;;5028995;28;20301;-75
2023/01/06 05:56:01;;;;;;;15.38;13.77;;;11.20;99.90;;;;;;5022399;28;20262;-75
2023/01/06 05:58:28;;;;;;;14.20;11.43;;;11.30;99.90;;;;;;5028005;28;20691;-75
2023/01/06 06:00:55;;;;;;;16.33;12.75;;;11.20;99.90;;;;;;5024122;28;20605;-75
2023/01/06 06:03:23;;;;;;;16.85;12.10;;;11.20;99.90;;;;;;5032707;28;20204;-77
2023/01/06 06:05:50;;;;;;;18.88;12.32;;;11.30;99.90;;;;;;5026397;28;20243;-75
2023/01/06 06:08:17;;;;;;;14.80;11.02;;;11.20;99.90;;;;;;5031484;28;20206;-75
2023/01/06 06:10:44;;;;;;;17.58;10.85;;;11.20;99.90;;;;;;5036153;28;20201;-74
2023/01/06 06:13:10;;;;;;;15.55;11.43;;;11.30;99.90;;;;;;5037009;28;20664;-77
2023/01/06 06:15:37;;;;;;;13.38;10.15;;;11.30;99.90;;;;;;5036387;28;20274;-75
2023/01/06 06:18:05;;;;;;;11.35;9.85;;;11.20;99.90;;;;;;5035702;28;20289;-75
2023/01/06 06:20:33;;;;;;;11.40;10.13;;;11.20;99.90;;;;;;5034653;28;20203;-76
2023/01/06 06:23:00;;;;;;;13.07;10.68;;;11.20;99.90;;;;;;5031315;28;20215;-76
2023/01/06 06:25:28;;;;;;;12.75;8.57;;;11.20;99.90;;;;;;5029134;28;20259;-75
2023/01/06 06:27:57;;;;;;;11.25;9.10;;;11.30;99.90;;;;;;5033479;28;20202;-75
2023/01/06 06:30:24;;;;;;;11.73;9.23;;;11.20;99.90;;;;;;5029946;28;20203;-75
2023/01/06 06:32:51;;;;;;;13.18;8.90;;;11.20;99.90;;;;;;5035899;28;20676;-75
2023/01/06 06:35:18;;;;;;;10.55;8.13;;;11.10;99.90;;;;;;5035860;28;20637;-75
2023/01/06 06:37:48;;;;;;;9.77;8.15;;;11.20;99.90;;;;;;5031221;28;20230;-75
2023/01/06 06:40:15;;;;;;;10.75;8.20;;;11.10;99.90;;;;;;5026496;28;20242;-75
2023/01/06 06:42:43;;;;;;;11.57;7.93;;;11.10;99.90;;;;;;5032424;28;20279;-76
2023/01/06 06:45:10;;;;;;;8.95;8.10;;;11.10;99.90;;;;;;5028937;28;20223;-75
2023/01/06 06:47:37;;;;;;;8.40;6.95;;;11.10;99.90;;;;;;5033367;28;20203;-76
2023/01/06 06:50:05;;;;;;;8.40;7.60;;;11.10;99.90;;;;;;5029902;28;20340;-74
2023/01/06 06:52:32;;;;;;;9.15;7.60;;;11.10;99.90;;;;;;5027917;28;20568;-75
2023/01/06 06:55:00;;;;;;;7.60;6.80;;;11.20;99.90;;;;;;5023961;28;20675;-75
2023/01/06 06:57:27;;;;;;;8.93;8.02;;;11.30;99.90;;;;;;5030258;28;20223;-76
2023/01/06 06:59:54;;;;;;;8.20;7.15;;;11.30;99.90;;;;;;5033069;28;20208;-76
2023/01/06 07:02:21;;;;;;;9.25;6.90;;;11.30;99.90;;;;;;5029337;28;20655;-75
2023/01/06 07:04:48;;;;;;;9.30;6.47;;;11.30;99.90;;;;;;5022963;28;20637;-75
2023/01/06 07:07:15;;;;;;;7.47;6.75;;;11.20;99.90;;;;;;5033631;28;21403;-75
2023/01/06 07:09:42;;;;;;;7.25;5.28;;;11.30;99.90;;;;;;5029060;28;20203;-76
2023/01/06 07:12:10;;;;;;;7.88;4.95;;;11.30;99.90;;;;;;5035035;28;20726;-75
2023/01/06 07:14:37;;;;;;;7.40;6.00;;;11.30;99.90;;;;;;5028346;28;20201;-77
2023/01/06 07:17:03;;;;;;;11.35;5.97;;;11.20;99.90;;;;;;5035112;28;20212;-75
2023/01/06 07:19:30;;;;;;;4.97;4.55;;;11.20;99.90;;;;;;5033454;28;20200;-75
2023/01/06 07:21:57;;;;;;;5.60;3.83;;;11.20;99.90;;;;;;5034679;28;20239;-76
2023/01/06 07:24:25;;;;;;;5.05;4.55;;;11.10;99.90;;;;;;5027406;28;20289;-75
2023/01/06 07:26:52;;;;;;;7.72;4.13;;;11.20;99.90;;;;;;5028826;28;20357;-75
2023/01/06 07:29:20;;;;;;;6.18;4.05;;;11.20;99.90;;;;;;5030873;28;20211;-77
2023/01/06 07:31:47;;;;;;;6.80;3.72;;;11.10;99.90;;;;;;5022388;28;20214;-75
2023/01/06 07:34:14;;;;;;;3.35;3.05;;;11.10;99.90;;;;;;5030769;28;20226;-76
2023/01/06 07:36:41;;;;;;;5.95;3.20;;;11.10;99.90;;;;;;5021502;28;20625;-76
2023/01/06 07:39:09;;;;;;;5.95;3.95;;;11.10;99.90;;;;;;5026777;28;20203;-75
2023/01/06 07:41:36;;;;;;;8.13;3.15;;;11.10;99.90;;;;;;5026889;28;20305;-77
2023/01/06 07:44:03;;;;;;;12.55;3.33;;;11.10;99.90;;;;;;5028151;28;20662;-76
2023/01/06 07:46:32;;;;;;;5.50;3.00;;;11.20;99.90;;;;;;5023746;28;20243;-76
2023/01/06 07:48:59;;;;;;;4.50;3.50;;;11.20;99.90;;;;;;5033892;28;20230;-75
2023/01/06 07:51:25;;;;;;;4.97;3.55;;;11.20;99.90;;;;;;5027763;28;20209;-76
2023/01/06 07:53:52;;;;;;;7.15;3.05;;;11.20;99.90;;;;;;5026666;28;20207;-76
2023/01/06 07:56:20;;;;;;;3.55;2.30;;;11.20;99.90;;;;;;5033723;28;20229;-77
2023/01/06 07:58:47;;;;;;;7.05;3.33;;;11.10;99.90;;;;;;5026736;28;20210;-76
2023/01/06 08:01:14;;;;;;;5.63;3.35;;;11.20;99.90;;;;;;5027451;28;20303;-76
2023/01/06 08:03:42;;;;;;;3.17;2.88;;;11.20;99.90;;;;;;5023743;28;20195;-75
2023/01/06 08:06:11;;;;;;;5.40;3.30;;;11.20;99.90;;;;;;5027495;28;20319;-75
2023/01/06 08:08:38;;;;;;;6.93;4.88;;;11.10;99.90;;;;;;5034331;28;20724;-76
2023/01/06 08:11:06;;;;;;;3.35;2.90;;;11.10;99.90;;;;;;5032210;28;20210;-75
2023/01/06 08:13:33;;;;;;;3.70;3.40;;;11.10;99.90;;;;;;5033527;28;20674;-75
2023/01/06 08:16:04;;;;;;;4.53;3.05;;;11.10;99.90;;;;;;5033199;28;20231;-74
2023/01/06 08:18:31;;;;;;;4.18;3.78;;;11.10;99.90;;;;;;5025549;28;20285;-76
2023/01/06 08:21:01;;;;;;;10.15;3.63;;;11.20;99.90;;;;;;5030565;28;20245;-76
2023/01/06 08:23:29;;;;;;;4.50;2.70;;;11.20;99.90;;;;;;5020479;28;20227;-77
2023/01/06 08:26:02;;;;;;;3.75;3.42;;;11.10;99.90;;;;;;5029291;28;20233;-76
2023/01/06 08:28:29;;;;;;;6.10;3.47;;;11.10;99.90;;;;;;5027144;28;20607;-77
2023/01/06 08:30:56;;;;;;;5.55;3.70;;;11.10;99.90;;;;;;5025915;28;20295;-75
2023/01/06 08:33:24;;;;;;;5.03;3.25;;;11.00;99.90;;;;;;5022799;28;20282;-78
2023/01/06 08:35:52;;;;;;;5.35;3.97;;;11.10;99.90;;;;;;5032765;28;20235;-77
2023/01/06 09:06:05;;;;;;;7.03;6.05;;;10.70;99.90;;;;;;5232400;23;20214;-84
2023/01/06 09:08:33;;;;;;;6.10;5.20;;;10.70;99.90;;;;;;5089386;28;20271;-83
2023/01/06 09:11:15;;;;;;;6.28;5.68;;;10.60;99.90;;;;;;5093359;28;20311;-83
2023/01/06 09:13:43;;;;;;;6.47;5.80;;;10.60;99.90;;;;;;5080118;28;20431;-64
2023/01/06 09:16:10;;;;;;;8.90;6.78;;;10.60;99.90;;;;;;5077029;28;20749;-64
2023/01/06 09:18:38;;;;;;;6.03;5.22;;;10.60;99.90;;;;;;5075555;28;20208;-64
2023/01/06 09:21:06;;;;;;;7.20;6.55;;;10.50;99.90;;;;;;5074855;28;20227;-66
2023/01/06 09:23:34;;;;;;;6.95;6.13;;;10.60;99.90;;;;;;5076835;28;20204;-66
2023/01/06 09:26:00;;;;;;;7.40;5.47;;;10.60;99.90;;;;;;5075421;28;20212;-64
2023/01/06 09:28:27;;;;;;;7.97;4.93;;;10.60;99.90;;;;;;5075651;28;20240;-65
2023/01/06 09:30:54;;;;;;;4.95;4.40;;;10.50;99.90;;;;;;5075432;28;20364;-65
2023/01/06 09:33:21;;;;;;;6.07;5.00;;;10.60;99.90;;;;;;5074612;28;20225;-66
2023/01/06 09:35:48;;;;;;;7.22;4.55;;;10.60;99.90;;;;;;5075939;28;20861;-65
2023/01/06 09:38:17;;;;;;;4.95;3.85;;;10.60;99.90;;;;;;5073539;28;20222;-66
2023/01/06 09:41:00;;;;;;;5.20;4.70;;;10.70;99.90;;;;;;5073878;28;20236;-68
2023/01/06 09:43:39;;;;;;;4.63;4.22;;;10.60;99.90;;;;;;5078580;28;20200;-68
2023/01/06 09:46:08;;;;;;;5.15;4.63;;;10.60;99.90;;;;;;5077895;28;20214;-68
2023/01/06 09:48:40;;;;;;;5.47;3.80;;;10.60;99.90;;;;;;5078541;28;20207;-67
2023/01/06 09:51:09;;;;;;;5.30;4.72;;;10.60;99.90;;;;;;5078286;28;20878;-68
2023/01/06 09:53:41;;;;;;;3.70;3.35;;;10.70;99.90;;;;;;5078565;28;20320;-66
2023/01/06 09:56:13;;;;;;;6.00;4.70;;;10.70;99.90;;;;;;5078652;28;20516;-66
2023/01/06 09:58:45;;;;;;;4.75;4.05;;;10.70;99.90;;;;;;5078921;28;20222;-66
2023/01/06 10:01:15;;;;;;;4.15;3.75;;;10.80;99.90;;;;;;5078353;28;20403;-66
2023/01/06 10:03:45;;;;;;;4.95;4.53;;;10.70;99.90;;;;;;5079034;28;20199;-65
2023/01/06 10:06:29;;;;;;;7.05;5.38;;;10.80;99.90;;;;;;5077783;28;20217;-66
2023/01/06 10:09:06;;;;;;;6.18;4.35;;;10.90;99.90;;;;;;5077542;28;20209;-65
2023/01/06 10:11:43;;;;;;;4.07;3.78;;;10.90;99.90;;;;;;5077285;28;20224;-66
2023/01/06 10:14:18;;;;;;;5.35;4.85;;;11.00;99.90;;;;;;5077951;28;20293;-65
2023/01/06 10:17:00;;;;;;;5.60;5.10;;;11.00;99.90;;;;;;5079532;28;20200;-66
2023/01/06 10:19:41;;;;;;;5.07;4.63;;;11.10;99.90;;;;;;5078809;28;20224;-67
2023/01/06 10:22:18;;;;;;;6.15;5.55;;;11.20;99.90;;;;;;5078045;28;20231;-67
2023/01/06 10:24:54;;;;;;;4.80;4.10;;;11.40;99.90;;;;;;5079020;28;20326;-68
2023/01/06 10:27:27;;;;;;;5.07;4.30;;;11.70;99.90;;;;;;5079338;28;20209;-66
2023/01/06 10:29:56;;;;;;;5.20;4.70;;;11.90;99.90;;;;;;5079522;28;20217;-68
2023/01/06 10:32:27;;;;;;;5.85;4.20;;;11.80;99.90;;;;;;5080072;28;20280;-67
2023/01/06 10:34:54;;;;;;;6.00;3.55;;;11.80;99.90;;;;;;5078436;28;20213;-66
2023/01/06 10:37:25;;;;;;;3.63;3.20;;;11.70;99.90;;;;;;5077222;28;20296;-67
2023/01/06 10:40:00;;;;;;;3.88;3.47;;;11.70;99.90;;;;;;5077688;28;20206;-67
2023/01/06 10:45:19;;;;;;;2.80;2.00;;;11.80;99.90;;;;;;5078518;28;20209;-67
2023/01/06 10:47:46;;;;;;;3.25;2.95;;;12.00;99.90;;;;;;5079142;28;20206;-69
2023/01/06 10:50:14;;;;;;;2.03;1.83;;;12.50;99.90;;;;;;5079516;28;20589;-67
2023/01/06 10:52:41;;;;;;;3.13;1.83;;;12.80;99.90;;;;;;5079146;28;20230;-66
2023/01/06 10:55:26;;;;;;;3.10;2.40;;;12.80;99.90;;;;;;5078245;28;20220;-67
2023/01/06 10:57:55;;;;;;;1.33;1.23;;;12.90;99.90;;;;;;5083839;28;20208;-66
2023/01/06 11:00:24;;;;;;;3.05;1.48;;;12.80;99.90;;;;;;5101513;28;20220;-67
2023/01/06 11:02:53;;;;;;;2.15;1.45;;;12.90;99.90;;;;;;5100161;28;20232;-67
2023/01/06 11:05:23;;;;;;;2.85;1.30;;;12.70;99.90;;;;;;5099208;28;20713;-66
2023/01/06 11:07:55;;;;;;;4.82;1.30;;;12.50;99.90;;;;;;5100050;28;20220;-66
2023/01/06 11:10:35;;;;;;;4.97;1.60;;;12.50;99.90;;;;;;5100975;28;20258;-68
2023/01/06 11:13:03;;;;;;;2.75;1.20;;;12.50;99.90;;;;;;5101014;28;20243;-67
2023/01/06 11:15:38;;;;;;;1.75;1.50;;;12.50;99.90;;;;;;5101193;27;20231;-67
2023/01/06 11:18:06;;;;;;;7.85;2.00;;;12.50;99.90;;;;;;5101862;28;20210;-67
2023/01/06 11:20:35;;;;;;;3.08;1.17;;;12.50;99.90;;;;;;5102269;28;20204;-66
2023/01/06 11:23:21;;;;;;;1.90;1.00;;;12.30;99.90;;;;;;5101124;28;20221;-65
2023/01/06 11:26:03;;;;;;;6.75;1.65;;;12.40;99.90;;;;;;5101816;28;20220;-65
2023/01/06 11:28:30;;;;;;;4.15;1.55;;;12.40;99.90;;;;;;5100895;28;20213;-67
2023/01/06 11:31:03;;;;;;;2.65;1.35;;;12.50;99.90;;;;;;5100897;27;20229;-66
2023/01/06 11:33:32;;;;;;;5.03;0.98;;;12.50;99.90;;;;;;5100773;28;20254;-63
2023/01/06 11:36:08;;;;;;;8.13;1.75;;;12.40;99.90;;;;;;5105057;28;20213;-67
2023/01/06 11:38:42;;;;;;;4.47;1.13;;;12.40;99.90;;;;;;5099178;28;20622;-68
2023/01/06 11:41:12;;;;;;;3.55;1.30;;;12.60;99.90;;;;;;5098816;28;20228;-66
2023/01/06 11:43:45;;;;;;;3.00;1.50;;;12.70;99.90;;;;;;5098401;28;20853;-71
2023/01/06 11:46:15;;;;;;;3.75;1.25;;;12.80;99.90;;;;;;5098367;28;20681;-67
2023/01/06 11:48:47;;;;;;;5.80;1.65;;;12.80;99.90;;;;;;5097664;28;20209;-68
2023/01/06 11:51:14;;;;;;;3.58;1.67;;;12.80;99.90;;;;;;5099008;28;20276;-66
2023/01/06 11:53:56;;;;;;;3.45;2.53;;;12.70;99.90;;;;;;5114351;22;20318;-65
2023/01/06 11:56:24;;;;;;;2.47;1.00;;;12.40;99.90;;;;;;5064450;28;20320;-66
2023/01/06 11:59:02;;;;;;;4.38;1.00;;;12.10;99.90;;;;;;5056058;28;20199;-68
2023/01/06 12:01:36;;;;;;;3.35;1.30;;;12.10;99.90;;;;;;5055262;28;20205;-67
2023/01/06 12:04:12;;;;;;;2.38;0.80;;;11.90;99.90;;;;;;5060372;28;20220;-66
2023/01/06 12:06:42;;;;;;;1.83;1.00;;;11.80;99.90;;;;;;5065719;28;20633;-68
2023/01/06 12:09:17;;;;;;;7.28;1.55;;;11.80;99.90;;;;;;5062238;28;20562;-68
2023/01/06 12:12:26;;;;;;;3.17;0.93;;;11.70;99.90;;;;;;5069315;28;20293;-83
2023/01/06 12:15:05;;;;;;;4.55;1.30;;;11.60;99.90;;;;;;5071341;28;20234;-81
2023/01/06 12:17:42;;;;;;;3.90;1.15;;;11.40;99.90;;;;;;5073164;28;20202;-82
2023/01/06 12:20:15;;;;;;;3.85;1.10;;;11.40;99.90;;;;;;5069547;28;20234;-80
2023/01/06 12:22:46;;;;;;;5.55;1.50;;;11.30;99.90;;;;;;5075491;28;20265;-83
2023/01/06 12:25:17;;;;;;;5.25;1.30;;;11.40;99.90;;;;;;5079317;28;20270;-79
2023/01/06 12:27:50;;;;;;;3.38;0.80;;;11.50;99.90;;;;;;5072761;28;20267;-80
2023/01/06 12:30:26;;;;;;;2.40;1.05;;;11.50;99.90;;;;;;5077364;28;20216;-80
2023/01/06 12:32:56;;;;;;;8.15;2.53;;;11.50;99.90;;;;;;5066300;28;20308;-81
2023/01/06 12:35:28;;;;;;;3.35;1.50;;;11.60;99.90;;;;;;5083051;28;20221;-81
2023/01/06 12:37:59;;;;;;;3.80;2.08;;;11.70;99.90;;;;;;5073134;28;20202;-81
2023/01/06 12:40:31;;;;;;;10.50;1.83;;;11.80;99.90;;;;;;5079584;28;20208;-78
2023/01/06 12:43:11;;;;;;;4.22;1.50;;;11.70;99.90;;;;;;5078998;28;20199;-81
2023/01/06 12:45:47;;;;;;;3.17;1.55;;;11.70;99.90;;;;;;5073710;28;20272;-80
2023/01/06 12:48:25;;;;;;;6.15;1.23;;;11.50;99.90;;;;;;5077717;28;20210;-81
2023/01/06 12:50:57;;;;;;;2.78;0.90;;;11.60;99.90;;;;;;5077984;28;20204;-81
2023/01/06 12:53:28;;;;;;;3.75;1.55;;;11.70;99.90;;;;;;5071816;28;20236;-80
2023/01/06 12:56:10;;;;;;;7.90;1.45;;;11.60;99.90;;;;;;5067724;28;20270;-80
2023/01/06 12:58:45;;;;;;;3.85;1.20;;;11.50;99.90;;;;;;5073818;28;20231;-81
2023/01/06 13:01:18;;;;;;;4.55;1.88;;;11.60;99.90;;;;;;5069751;28;20304;-79
2023/01/06 13:04:13;;;;;;;6.53;1.60;;;11.60;99.90;;;;;;5065840;28;20234;-80
2023/01/06 13:06:58;;;;;;;2.67;1.17;;;11.50;99.90;;;;;;5063795;28;20237;-80
2023/01/06 13:09:37;;;;;;;10.73;2.17;;;11.50;99.90;;;;;;5066475;28;20198;-80
2023/01/06 13:12:19;;;;;;;2.95;1.85;;;11.40;99.90;;;;;;5075043;28;20228;-80
2023/01/06 13:14:57;;;;;;;3.72;1.02;;;11.30;99.90;;;;;;5094018;28;20223;-78
2023/01/06 13:17:29;;;;;;;2.10;1.15;;;11.30;99.90;;;;;;5094981;28;20192;-79
2023/01/06 13:20:01;;;;;;;9.18;2.10;;;11.40;99.90;;;;;;5097216;28;20209;-78
2023/01/06 13:22:44;;;;;;;3.90;1.75;;;11.20;99.90;;;;;;5084951;28;20193;-80
2023/01/06 13:25:39;;;;;;;1.58;0.90;;;11.20;99.90;;;;;;5069560;28;20236;-80
2023/01/06 13:28:20;;;;;;;7.80;2.00;;;10.90;99.90;;;;;;5071765;28;20200;-78
2023/01/06 13:38:15;;;;;;;3.80;1.80;;;10.80;99.90;;;;;;5096445;28;20275;-84
2023/01/06 13:40:43;;;;;;;8.63;1.27;;;10.70;99.90;;;;;;5081857;28;20248;-80